createdAt,value
2018-11-26T00:00:26.963Z,99725.32
2018-11-26T00:02:54.402Z,99722.36
2018-11-26T00:05:21.833Z,99721.86
2018-11-26T00:07:49.259Z,99721.30
2018-11-26T00:10:16.694Z,99719.41
2018-11-26T00:12:44.119Z,99719.22
2018-11-26T00:15:11.612Z,99727.42
2018-11-26T00:17:39.063Z,99718.94
2018-11-26T00:20:06.530Z,99718.67
2018-11-26T00:22:34.631Z,99708.03
2018-11-26T00:25:02.072Z,99704.75
2018-11-26T00:27:29.496Z,99699.80
2018-11-26T00:29:56.923Z,99697.72
2018-11-26T00:32:24.355Z,99698.45
2018-11-26T00:34:51.887Z,99692.02
2018-11-26T00:37:20.166Z,99686.72
2018-11-26T00:39:47.618Z,99691.72
2018-11-26T00:42:15.057Z,99689.47
2018-11-26T00:44:42.483Z,99686.83
2018-11-26T00:47:10.186Z,99693.05
2018-11-26T00:49:37.614Z,99688.61
2018-11-26T00:52:05.119Z,99687.31
2018-11-26T00:54:32.547Z,99691.06
2018-11-26T00:56:59.974Z,99692.03
2018-11-26T00:59:27.411Z,99699.04
2018-11-26T01:01:54.845Z,99693.43
2018-11-26T01:04:22.285Z,99686.59
2018-11-26T01:06:49.969Z,99695.73
2018-11-26T01:09:17.416Z,99693.01
2018-11-26T01:11:44.846Z,99686.11
2018-11-26T01:14:12.279Z,99688.28
2018-11-26T01:16:39.705Z,99687.80
2018-11-26T01:19:07.159Z,99681.73
2018-11-26T01:21:34.679Z,99671.14
2018-11-26T01:24:02.037Z,99672.86
2018-11-26T01:26:29.454Z,99674.00
2018-11-26T01:28:56.925Z,99677.84
2018-11-26T01:31:24.304Z,99675.80
2018-11-26T01:33:52.098Z,99673.28
2018-11-26T01:36:19.526Z,99677.30
2018-11-26T01:38:46.959Z,99673.46
2018-11-26T01:41:14.406Z,99674.05
2018-11-26T01:43:41.846Z,99661.19
2018-11-26T01:46:09.280Z,99671.06
2018-11-26T01:48:36.744Z,99668.33
2018-11-26T01:51:04.198Z,99663.75
2018-11-26T01:53:31.640Z,99663.67
2018-11-26T01:55:59.114Z,99661.79
2018-11-26T01:58:26.626Z,99659.37
2018-11-26T02:00:54.054Z,99660.17
2018-11-26T02:03:21.478Z,99659.46
2018-11-26T02:05:48.922Z,99655.72
2018-11-26T02:08:16.342Z,99650.00
2018-11-26T02:10:43.776Z,99661.45
2018-11-26T02:13:11.221Z,99653.68
2018-11-26T02:15:39.569Z,99654.31
2018-11-26T02:18:06.994Z,99655.39
2018-11-26T02:20:34.433Z,99663.30
2018-11-26T02:23:01.866Z,99649.77
2018-11-26T02:25:29.339Z,99651.41
2018-11-26T02:27:56.763Z,99648.27
2018-11-26T02:30:24.195Z,99648.25
2018-11-26T02:32:51.626Z,99649.77
2018-11-26T02:35:19.066Z,99657.30
2018-11-26T02:37:46.491Z,99656.66
2018-11-26T02:40:13.941Z,99660.80
2018-11-26T02:42:41.423Z,99650.69
2018-11-26T02:45:08.864Z,99649.66
2018-11-26T02:47:36.344Z,99658.06
2018-11-26T02:50:03.773Z,99649.20
2018-11-26T02:52:31.249Z,99656.02
2018-11-26T02:54:58.687Z,99656.97
2018-11-26T02:57:26.178Z,99655.84
2018-11-26T02:59:53.620Z,99658.62
2018-11-26T03:02:21.051Z,99650.23
2018-11-26T03:04:48.546Z,99652.57
2018-11-26T03:07:15.983Z,99644.19
2018-11-26T03:09:43.410Z,99648.79
2018-11-26T03:12:10.842Z,99649.59
2018-11-26T03:14:38.271Z,99653.17
2018-11-26T03:17:05.726Z,99652.67
2018-11-26T03:19:33.318Z,99649.63
2018-11-26T03:22:00.750Z,99652.92
2018-11-26T03:24:28.177Z,99658.18
2018-11-26T03:26:55.611Z,99655.39
2018-11-26T03:29:23.044Z,99651.75
2018-11-26T03:31:50.578Z,99652.63
2018-11-26T03:34:18.015Z,99657.00
2018-11-26T03:36:45.546Z,99657.70
2018-11-26T03:39:12.909Z,99661.62
2018-11-26T03:41:40.339Z,99659.92
2018-11-26T03:44:07.762Z,99664.14
2018-11-26T03:46:35.190Z,99660.22
2018-11-26T03:49:02.619Z,99659.77
2018-11-26T03:51:30.134Z,99665.07
2018-11-26T03:53:57.553Z,99665.98
2018-11-26T03:56:24.991Z,99664.37
2018-11-26T03:58:52.427Z,99664.14
2018-11-26T04:01:19.851Z,99656.72
2018-11-26T04:03:47.329Z,99655.98
2018-11-26T04:06:14.770Z,99653.05
2018-11-26T04:08:42.195Z,99655.03
2018-11-26T04:11:09.631Z,99652.83
2018-11-26T04:13:37.058Z,99661.22
2018-11-26T04:16:04.502Z,99659.76
2018-11-26T04:18:31.966Z,99662.80
2018-11-26T04:20:59.432Z,99658.66
2018-11-26T04:23:26.854Z,99655.40
2018-11-26T04:25:54.330Z,99655.03
2018-11-26T04:28:21.754Z,99658.08
2018-11-26T04:30:49.191Z,99659.69
2018-11-26T04:33:16.626Z,99659.30
2018-11-26T04:35:44.050Z,99667.75
2018-11-26T04:38:11.478Z,99658.89
2018-11-26T04:40:38.909Z,99662.81
2018-11-26T04:43:06.329Z,99666.70
2018-11-26T04:45:33.785Z,99666.48
2018-11-26T04:48:01.218Z,99667.88
2018-11-26T04:50:28.659Z,99674.58
2018-11-26T04:52:56.095Z,99679.70
2018-11-26T04:55:24.286Z,99670.22
2018-11-26T04:57:51.735Z,99672.09
2018-11-26T05:00:19.157Z,99679.20
2018-11-26T05:02:46.585Z,99670.08
2018-11-26T05:05:14.214Z,99675.86
2018-11-26T05:07:41.676Z,99673.29
2018-11-26T05:10:09.114Z,99669.14
2018-11-26T05:12:36.641Z,99671.42
2018-11-26T05:15:04.069Z,99663.73
2018-11-26T05:17:31.494Z,99676.77
2018-11-26T05:19:58.926Z,99685.81
2018-11-26T05:22:26.362Z,99682.26
2018-11-26T05:24:53.826Z,99677.05
2018-11-26T05:27:21.254Z,99677.81
2018-11-26T05:29:48.737Z,99678.12
2018-11-26T05:32:16.209Z,99683.34
2018-11-26T05:34:43.634Z,99683.54
2018-11-26T05:37:11.116Z,99683.25
2018-11-26T05:39:38.578Z,99672.99
2018-11-26T05:42:05.998Z,99683.29
2018-11-26T05:44:33.498Z,99685.62
2018-11-26T05:47:00.918Z,99683.63
2018-11-26T05:49:28.346Z,99681.40
2018-11-26T05:51:55.774Z,99682.97
2018-11-26T05:54:23.197Z,99684.16
2018-11-26T05:56:50.680Z,99681.30
2018-11-26T05:59:18.101Z,99694.81
2018-11-26T06:01:45.590Z,99686.52
2018-11-26T06:04:13.045Z,99682.38
2018-11-26T06:06:40.502Z,99686.63
2018-11-26T06:09:07.944Z,99688.08
2018-11-26T06:11:35.417Z,99682.88
2018-11-26T06:14:02.843Z,99682.85
2018-11-26T06:16:30.334Z,99684.55
2018-11-26T06:18:57.799Z,99690.67
2018-11-26T06:21:25.227Z,99692.44
2018-11-26T06:23:52.806Z,99693.60
2018-11-26T06:26:20.258Z,99691.95
2018-11-26T06:28:47.678Z,99688.95
2018-11-26T06:31:15.187Z,99699.13
2018-11-26T06:33:42.682Z,99703.85
2018-11-26T06:36:10.107Z,99695.77
2018-11-26T06:38:37.538Z,99697.81
2018-11-26T06:41:05.009Z,99697.53
2018-11-26T06:43:32.442Z,99697.45
2018-11-26T06:45:59.875Z,99703.34
2018-11-26T06:48:27.381Z,99706.44
2018-11-26T06:50:54.810Z,99711.16
2018-11-26T06:53:22.303Z,99698.54
2018-11-26T06:55:49.738Z,99699.54
2018-11-26T06:58:17.217Z,99705.91
2018-11-26T07:00:44.643Z,99709.34
2018-11-26T07:03:12.077Z,99709.75
2018-11-26T07:05:39.492Z,99716.63
2018-11-26T07:08:06.928Z,99720.05
2018-11-26T07:10:34.349Z,99713.39
2018-11-26T07:13:01.770Z,99710.34
2018-11-26T07:15:29.190Z,99708.30
2018-11-26T07:17:56.617Z,99707.70
2018-11-26T07:20:24.503Z,99709.78
2018-11-26T07:22:51.930Z,99709.11
2018-11-26T07:25:20.966Z,99718.75
2018-11-26T07:27:48.390Z,99721.84
2018-11-26T07:30:15.805Z,99723.36
2018-11-26T07:32:43.257Z,99725.09
2018-11-26T07:35:10.955Z,99718.52
2018-11-26T07:37:38.389Z,99723.56
2018-11-26T07:40:05.854Z,99724.97
2018-11-26T07:42:33.282Z,99726.89
2018-11-26T07:45:00.701Z,99731.17
2018-11-26T07:47:28.153Z,99735.38
2018-11-26T07:49:55.581Z,99737.73
2018-11-26T07:52:23.007Z,99736.18
2018-11-26T07:54:50.425Z,99731.01
2018-11-26T07:57:17.938Z,99735.73
2018-11-26T07:59:45.393Z,99740.42
2018-11-26T08:02:12.824Z,99744.90
2018-11-26T08:04:40.305Z,99747.39
2018-11-26T08:07:07.770Z,99745.83
2018-11-26T08:09:35.206Z,99756.95
2018-11-26T08:12:02.629Z,99750.95
2018-11-26T08:14:30.053Z,99754.34
2018-11-26T08:16:57.506Z,99757.16
2018-11-26T08:19:24.954Z,99756.23
2018-11-26T08:21:52.414Z,99755.83
2018-11-26T08:24:19.838Z,99761.41
2018-11-26T08:26:47.619Z,99756.16
2018-11-26T08:29:15.046Z,99751.95
2018-11-26T08:31:42.474Z,99755.80
2018-11-26T08:34:09.901Z,99760.00
2018-11-26T08:36:43.470Z,99767.88
2018-11-26T08:39:15.094Z,99757.70
2018-11-26T08:41:48.022Z,99765.52
2018-11-26T08:44:19.642Z,99772.00
2018-11-26T08:46:47.069Z,99772.75
2018-11-26T08:49:18.677Z,99762.55
2018-11-26T08:51:46.511Z,99768.68
2018-11-26T08:54:14.037Z,99773.13
2018-11-26T08:56:41.493Z,99776.17
2018-11-26T08:59:10.015Z,99770.31
2018-11-26T09:01:42.491Z,99786.61
2018-11-26T09:04:11.101Z,99786.77
2018-11-26T09:06:38.530Z,99793.98
2018-11-26T09:09:06.063Z,99796.73
2018-11-26T09:11:33.483Z,99790.45
2018-11-26T09:14:00.913Z,99794.30
2018-11-26T09:16:28.343Z,99795.53
2018-11-26T09:18:55.770Z,99796.86
2018-11-26T09:21:23.200Z,99809.08
2018-11-26T09:23:50.634Z,99795.98
2018-11-26T09:26:18.514Z,99801.64
2018-11-26T09:28:45.934Z,99797.19
2018-11-26T09:31:13.355Z,99805.53
2018-11-26T09:33:40.836Z,99804.13
2018-11-26T09:36:08.245Z,99802.05
2018-11-26T09:38:35.756Z,99799.00
2018-11-26T09:41:03.193Z,99797.94
2018-11-26T09:43:30.662Z,99792.79
2018-11-26T09:45:58.120Z,99790.58
2018-11-26T09:48:25.545Z,99794.41
2018-11-26T09:50:52.961Z,99787.35
2018-11-26T09:53:20.400Z,99793.22
2018-11-26T09:55:47.832Z,99794.37
2018-11-26T09:58:15.265Z,99801.62
2018-11-26T10:00:42.684Z,99803.83
2018-11-26T10:03:10.213Z,99795.23
2018-11-26T10:05:38.007Z,99798.89
2018-11-26T10:08:05.453Z,99795.84
2018-11-26T10:10:33.555Z,99795.84
2018-11-26T10:13:00.976Z,99803.00
2018-11-26T10:15:28.393Z,99795.19
2018-11-26T10:17:55.812Z,99800.60
2018-11-26T10:20:23.242Z,99795.88
2018-11-26T10:22:50.674Z,99796.90
2018-11-26T10:25:18.165Z,99797.21
2018-11-26T10:27:45.621Z,99794.73
2018-11-26T10:30:13.177Z,99797.21
2018-11-26T10:32:40.610Z,99792.25
2018-11-26T10:35:08.051Z,99796.17
2018-11-26T10:37:35.567Z,99791.80
2018-11-26T10:40:02.989Z,99787.98
2018-11-26T10:42:30.419Z,99785.80
2018-11-26T10:44:57.922Z,99779.05
2018-11-26T10:47:25.426Z,99779.34
2018-11-26T10:49:52.871Z,99781.30
2018-11-26T10:52:20.303Z,99777.38
2018-11-26T10:54:48.157Z,99780.00
2018-11-26T10:57:15.163Z,99779.89
2018-11-26T10:59:42.596Z,99778.53
2018-11-26T11:02:15.540Z,99785.20
2018-11-26T11:04:47.588Z,99782.03
2018-11-26T11:07:10.527Z,99782.10
2018-11-26T11:09:38.011Z,99779.34
2018-11-26T11:12:05.371Z,99779.56
2018-11-26T11:14:32.846Z,99771.80
2018-11-26T11:17:00.277Z,99769.03
2018-11-26T11:19:27.699Z,99772.45
2018-11-26T11:21:55.122Z,99768.48
2018-11-26T11:24:22.610Z,99773.97
2018-11-26T11:26:50.036Z,99772.41
2018-11-26T11:29:17.464Z,99766.88
2018-11-26T11:31:45.335Z,99773.56
2018-11-26T11:34:12.765Z,99773.28
2018-11-26T11:36:40.828Z,99770.65
2018-11-26T11:39:08.348Z,99766.25
2018-11-26T11:41:35.762Z,99771.73
2018-11-26T11:44:03.196Z,99769.02
2018-11-26T11:46:30.715Z,99770.22
2018-11-26T11:48:58.176Z,99761.61
2018-11-26T11:51:25.604Z,99766.05
2018-11-26T11:53:53.107Z,99769.77
2018-11-26T11:56:20.551Z,99771.91
2018-11-26T11:58:47.989Z,99767.13
2018-11-26T12:01:15.412Z,99767.05
2018-11-26T12:03:42.922Z,99764.81
2018-11-26T12:06:11.358Z,99762.00
2018-11-26T12:08:38.468Z,99770.38
2018-11-26T12:11:05.915Z,99764.61
2018-11-26T12:13:33.340Z,99764.56
2018-11-26T12:16:00.792Z,99764.77
2018-11-26T12:18:28.224Z,99763.02
2018-11-26T12:20:55.659Z,99759.28
2018-11-26T12:23:23.097Z,99766.98
2018-11-26T12:25:50.560Z,99760.57
2018-11-26T12:28:17.980Z,99762.20
2018-11-26T12:30:45.412Z,99766.38
2018-11-26T12:33:12.839Z,99770.55
2018-11-26T12:35:40.258Z,99761.77
2018-11-26T12:38:07.744Z,99764.09
2018-11-26T12:40:35.172Z,99761.25
2018-11-26T12:43:02.608Z,99768.25
2018-11-26T12:45:30.420Z,99763.33
2018-11-26T12:47:58.055Z,99755.44
2018-11-26T12:50:25.491Z,99761.25
2018-11-26T12:52:52.911Z,99762.20
2018-11-26T12:55:20.348Z,99757.96
2018-11-26T12:57:47.810Z,99755.60
2018-11-26T13:00:15.274Z,99754.56
2018-11-26T13:02:42.705Z,99764.89
2018-11-26T13:05:10.118Z,99760.33
2018-11-26T13:07:37.554Z,99761.12
2018-11-26T13:10:04.997Z,99761.53
2018-11-26T13:12:32.436Z,99759.72
2018-11-26T13:15:00.696Z,99759.84
2018-11-26T13:17:27.311Z,99755.00
2018-11-26T13:19:54.831Z,99758.69
2018-11-26T13:22:22.258Z,99760.25
2018-11-26T13:24:49.700Z,99759.56
2018-11-26T13:27:17.124Z,99754.59
2018-11-26T13:29:44.660Z,99758.56
2018-11-26T13:32:12.086Z,99763.69
2018-11-26T13:34:39.825Z,99771.30
2018-11-26T13:37:07.415Z,99771.05
2018-11-26T13:39:34.839Z,99781.98
2018-11-26T13:42:02.271Z,99780.27
2018-11-26T13:44:30.204Z,99773.14
2018-11-26T13:46:57.632Z,99778.74
2018-11-26T13:49:25.729Z,99775.58
2018-11-26T13:51:53.204Z,99781.02
2018-11-26T13:54:20.628Z,99784.47
2018-11-26T13:56:48.060Z,99789.66
2018-11-26T13:59:15.552Z,99796.06
2018-11-26T14:01:43.024Z,99799.17
2018-11-26T14:04:10.501Z,99799.36
2018-11-26T14:06:37.927Z,99803.27
2018-11-26T14:09:05.947Z,99802.39
2018-11-26T14:11:33.388Z,99815.03
2018-11-26T14:14:01.390Z,99816.53
2018-11-26T14:16:28.815Z,99807.88
2018-11-26T14:18:56.267Z,99816.36
2018-11-26T14:21:23.724Z,99817.34
2018-11-26T14:23:51.248Z,99824.44
2018-11-26T14:26:18.746Z,99825.98
2018-11-26T14:28:46.177Z,99826.60
2018-11-26T14:31:13.615Z,99824.66
2018-11-26T14:33:41.058Z,99830.12
2018-11-26T14:36:08.487Z,99835.38
2018-11-26T14:38:36.230Z,99831.72
2018-11-26T14:41:03.691Z,99833.48
2018-11-26T14:43:31.181Z,99836.70
2018-11-26T14:45:58.572Z,99835.96
2018-11-26T14:48:26.018Z,99841.16
2018-11-26T14:50:53.444Z,99839.23
2018-11-26T14:53:20.871Z,99832.86
2018-11-26T14:55:48.340Z,99844.52
2018-11-26T14:58:15.765Z,99833.52
2018-11-26T15:00:43.251Z,99839.40
2018-11-26T15:03:10.677Z,99838.78
2018-11-26T15:05:38.112Z,99840.28
2018-11-26T15:08:06.302Z,99838.87
2018-11-26T15:10:33.804Z,99843.90
2018-11-26T15:13:01.226Z,99846.77
2018-11-26T15:15:28.714Z,99845.48
2018-11-26T15:17:56.237Z,99845.97
2018-11-26T15:20:24.243Z,99846.48
2018-11-26T15:22:51.704Z,99857.90
2018-11-26T15:25:19.155Z,99854.67
2018-11-26T15:27:46.586Z,99863.84
2018-11-26T15:30:14.027Z,99861.98
2018-11-26T15:32:41.463Z,99858.00
2018-11-26T15:35:09.391Z,99860.39
2018-11-26T15:37:36.821Z,99860.32
2018-11-26T15:40:04.320Z,99858.59
2018-11-26T15:42:31.759Z,99858.20
2018-11-26T15:44:59.230Z,99858.38
2018-11-26T15:47:26.678Z,99860.34
2018-11-26T15:49:54.738Z,99866.66
2018-11-26T15:52:22.160Z,99862.16
2018-11-26T15:54:49.614Z,99867.90
2018-11-26T15:57:17.056Z,99864.00
2018-11-26T15:59:44.583Z,99865.82
2018-11-26T16:02:12.006Z,99869.85
2018-11-26T16:04:39.431Z,99869.45
2018-11-26T16:07:07.047Z,99872.16
2018-11-26T16:09:34.520Z,99871.79
2018-11-26T16:12:01.980Z,99867.02
2018-11-26T16:14:29.401Z,99871.19
2018-11-26T16:16:56.833Z,99880.72
2018-11-26T16:19:24.256Z,99882.40
2018-11-26T16:21:51.698Z,99875.66
2018-11-26T16:24:19.198Z,99884.99
2018-11-26T16:26:46.704Z,99875.24
2018-11-26T16:29:14.182Z,99883.41
2018-11-26T16:31:41.635Z,99889.27
2018-11-26T16:34:09.076Z,99893.04
2018-11-26T16:36:36.503Z,99886.41
2018-11-26T16:39:05.915Z,99882.61
2018-11-26T16:41:33.535Z,99892.99
2018-11-26T16:44:01.272Z,99885.68
2018-11-26T16:46:28.699Z,99890.70
2018-11-26T16:48:56.111Z,99882.26
2018-11-26T16:51:23.652Z,99887.17
2018-11-26T16:53:51.080Z,99889.63
2018-11-26T16:56:18.518Z,99888.95
2018-11-26T16:58:46.023Z,99887.87
2018-11-26T17:01:13.487Z,99889.74
2018-11-26T17:03:40.944Z,99893.75
2018-11-26T17:06:08.371Z,99898.98
2018-11-26T17:08:35.799Z,99893.55
2018-11-26T17:11:03.224Z,99905.14
2018-11-26T17:13:30.660Z,99909.03
2018-11-26T17:15:58.132Z,99917.82
2018-11-26T17:18:25.591Z,99918.78
2018-11-26T17:20:53.036Z,99923.64
2018-11-26T17:23:20.475Z,99923.11
2018-11-26T17:25:47.912Z,99925.00
2018-11-26T17:28:15.356Z,99925.66
2018-11-26T17:30:42.787Z,99924.33
2018-11-26T17:33:10.216Z,99916.83
2018-11-26T17:35:37.645Z,99915.73
2018-11-26T17:38:05.144Z,99923.02
2018-11-26T17:40:32.608Z,99922.75
2018-11-26T17:43:01.782Z,99924.13
2018-11-26T17:45:29.177Z,99914.63
2018-11-26T17:47:56.626Z,99935.51
2018-11-26T17:50:24.052Z,99934.59
2018-11-26T17:52:51.526Z,99946.38
2018-11-26T17:55:18.989Z,99944.38
2018-11-26T17:57:46.421Z,99948.57
2018-11-26T18:00:13.868Z,99944.81
2018-11-26T18:02:41.304Z,99947.66
2018-11-26T18:05:08.727Z,99955.37
2018-11-26T18:07:36.172Z,99952.33
2018-11-26T18:10:03.597Z,99954.91
2018-11-26T18:12:31.035Z,99958.09
2018-11-26T18:14:58.545Z,99954.45
2018-11-26T18:17:25.976Z,99954.66
2018-11-26T18:19:53.464Z,99949.61
2018-11-26T18:22:20.924Z,99954.45
2018-11-26T18:24:48.375Z,99959.66
2018-11-26T18:27:15.803Z,99963.31
2018-11-26T18:29:43.989Z,99970.47
2018-11-26T18:32:11.399Z,99976.05
2018-11-26T18:34:38.920Z,99975.02
2018-11-26T18:37:06.363Z,99988.59
2018-11-26T18:39:33.807Z,99980.45
2018-11-26T18:42:01.299Z,99978.19
2018-11-26T18:44:28.756Z,99979.89
2018-11-26T18:46:56.184Z,99981.25
2018-11-26T18:49:23.677Z,99988.47
2018-11-26T18:51:51.209Z,99992.65
2018-11-26T18:54:18.678Z,99989.48
2018-11-26T18:56:46.141Z,99993.73
2018-11-26T18:59:13.595Z,99989.32
2018-11-26T19:01:41.028Z,99997.98
2018-11-26T19:04:08.469Z,100001.08
2018-11-26T19:06:35.892Z,99996.05
2018-11-26T19:09:03.351Z,99998.77
2018-11-26T19:11:30.795Z,100004.52
2018-11-26T19:13:58.245Z,100001.95
2018-11-26T19:16:25.689Z,100001.40
2018-11-26T19:18:53.128Z,100004.60
2018-11-26T19:21:20.560Z,100012.28
2018-11-26T19:23:47.991Z,100007.72
2018-11-26T19:26:17.599Z,100018.73
2018-11-26T19:28:45.024Z,100011.46
2018-11-26T19:31:12.463Z,100016.75
2018-11-26T19:33:39.954Z,100007.55
2018-11-26T19:36:07.374Z,100012.04
2018-11-26T19:38:34.809Z,100016.52
2018-11-26T19:41:02.848Z,100024.25
2018-11-26T19:43:30.288Z,100022.28
2018-11-26T19:45:57.737Z,100026.91
2018-11-26T19:48:25.172Z,100021.62
2018-11-26T19:50:52.673Z,100031.92
2018-11-26T19:53:20.108Z,100025.61
2018-11-26T19:55:47.547Z,100029.30
2018-11-26T19:58:14.979Z,100031.06
2018-11-26T20:00:42.415Z,100043.04
2018-11-26T20:03:09.960Z,100034.66
2018-11-26T20:05:37.405Z,100038.64
2018-11-26T20:08:04.838Z,100044.77
2018-11-26T20:10:32.268Z,100044.05
2018-11-26T20:12:59.713Z,100048.93
2018-11-26T20:15:27.144Z,100051.03
2018-11-26T20:17:59.068Z,100047.59
2018-11-26T20:20:22.016Z,100048.93
2018-11-26T20:22:49.475Z,100046.17
2018-11-26T20:25:16.906Z,100046.31
2018-11-26T20:27:44.708Z,100060.36
2018-11-26T20:30:12.327Z,100049.09
2018-11-26T20:32:39.751Z,100047.87
2018-11-26T20:35:07.183Z,100055.95
2018-11-26T20:37:34.672Z,100061.06
2018-11-26T20:40:02.131Z,100062.81
2018-11-26T20:42:29.554Z,100070.45
2018-11-26T20:44:56.996Z,100068.34
2018-11-26T20:47:24.430Z,100068.44
2018-11-26T20:49:51.864Z,100079.03
2018-11-26T20:52:19.305Z,100092.39
2018-11-26T20:54:46.745Z,100087.61
2018-11-26T20:57:14.172Z,100090.78
2018-11-26T20:59:41.608Z,100098.45
2018-11-26T21:02:09.037Z,100097.95
2018-11-26T21:04:36.495Z,100111.38
2018-11-26T21:07:03.935Z,100100.34
2018-11-26T21:09:31.392Z,100107.12
2018-11-26T21:11:58.800Z,100109.65
2018-11-26T21:14:26.329Z,100110.14
2018-11-26T21:16:53.792Z,100109.88
2018-11-26T21:19:21.226Z,100103.03
2018-11-26T21:21:48.653Z,100102.02
2018-11-26T21:24:16.084Z,100108.44
2018-11-26T21:26:43.620Z,100108.24
2018-11-26T21:29:11.080Z,100115.19
2018-11-26T21:31:38.507Z,100110.96
2018-11-26T21:34:05.940Z,100117.64
2018-11-26T21:36:33.452Z,100117.55
2018-11-26T21:39:00.880Z,100117.74
2018-11-26T21:41:28.302Z,100122.66
2018-11-26T21:43:55.836Z,100122.28
2018-11-26T21:46:23.256Z,100124.73
2018-11-26T21:48:50.691Z,100125.23
2018-11-26T21:51:18.195Z,100129.14
2018-11-26T21:53:45.618Z,100128.48
2018-11-26T21:56:13.620Z,100128.48
2018-11-26T21:58:41.081Z,100130.91
2018-11-26T22:01:08.504Z,100131.28
2018-11-26T22:03:35.955Z,100135.89
2018-11-26T22:06:03.400Z,100130.99
2018-11-26T22:08:30.829Z,100136.23
2018-11-26T22:10:58.260Z,100139.55
2018-11-26T22:13:26.063Z,100135.48
2018-11-26T22:15:53.503Z,100149.09
2018-11-26T22:18:20.933Z,100145.37
2018-11-26T22:20:48.398Z,100146.94
2018-11-26T22:23:15.840Z,100149.94
2018-11-26T22:25:43.272Z,100156.66
2018-11-26T22:28:10.709Z,100164.66
2018-11-26T22:30:38.159Z,100174.02
2018-11-26T22:33:05.582Z,100162.63
2018-11-26T22:35:33.005Z,100170.98
2018-11-26T22:38:00.435Z,100173.58
2018-11-26T22:40:27.887Z,100177.24
2018-11-26T22:42:55.507Z,100176.31
2018-11-26T22:45:23.247Z,100177.75
2018-11-26T22:47:50.681Z,100180.53
2018-11-26T22:50:18.100Z,100191.30
2018-11-26T22:52:45.532Z,100187.91
2018-11-26T22:55:12.974Z,100186.03
2018-11-26T22:57:40.415Z,100192.73
2018-11-26T23:00:07.852Z,100192.80
2018-11-26T23:02:35.291Z,100195.17
2018-11-26T23:05:02.722Z,100196.63
2018-11-26T23:07:30.151Z,100197.73
2018-11-26T23:09:57.647Z,100188.95
2018-11-26T23:12:25.084Z,100184.66
2018-11-26T23:14:52.568Z,100192.77
2018-11-26T23:17:19.995Z,100194.94
2018-11-26T23:19:47.422Z,100192.23
2018-11-26T23:22:14.939Z,100194.08
2018-11-26T23:24:42.399Z,100197.13
2018-11-26T23:27:09.832Z,100198.16
2018-11-26T23:29:37.398Z,100204.78
2018-11-26T23:32:04.810Z,100200.42
2018-11-26T23:34:32.344Z,100205.75
2018-11-26T23:36:59.772Z,100201.35
2018-11-26T23:39:27.417Z,100202.80
2018-11-26T23:41:54.708Z,100206.87
2018-11-26T23:44:22.141Z,100207.41
2018-11-26T23:46:49.577Z,100206.03
2018-11-26T23:49:17.021Z,100205.61
2018-11-26T23:51:44.444Z,100208.05
2018-11-26T23:54:11.880Z,100212.97
2018-11-26T23:56:39.357Z,100205.56
2018-11-26T23:59:06.784Z,100211.20
